Terminal Aerodrome Forecast
Issued by NWS

Home | Current Version | Previous Version | Text Only | Print | Product List | Glossary On
Versions: 1 2 3 4 5 6 7 8 9 10 11 12 13 14 15 16 17 18 19 20
000
FTUS43 KICT 150520
TAFRSL
TAF
KRSL 150520Z 1506/1606 14010KT P6SM BKN200
     FM151100 14010KT P6SM SCT040
     FM151800 14018G26KT P6SM SCT040=

USA.gov is the U.S. government's official web portal to all federal, state and local government web resources and services.